Time;durP1;ratioP1;P1;durP2;ratioP2;P2;SDS_P1;SDS_P2;PMS_P1;PMS_P2;Temp;Humidity;BMP_temperature;BMP_pressure;BME280_temperature;BME280_humidity;BME280_pressure;Samples;Min_cycle;Max_cycle;Signal;HPM_P1;HPM_P2
2021/11/30 00:01:55;;;;;;;3.08;2.13;;;4.70;99.90;;;;;;4989605;28;21011;-75
2021/11/30 00:04:23;;;;;;;3.00;2.20;;;4.60;99.90;;;;;;4988232;28;20116;-75
2021/11/30 00:06:49;;;;;;;2.30;2.10;;;4.40;99.90;;;;;;4989917;28;20022;-75
2021/11/30 00:12:05;;;;;;;2.90;2.10;;;4.30;99.90;;;;;;4988532;28;20038;-75
2021/11/30 00:14:31;;;;;;;2.78;2.47;;;4.30;99.90;;;;;;4984522;28;20058;-73
2021/11/30 00:16:58;;;;;;;3.88;3.25;;;4.10;99.90;;;;;;4988896;28;20169;-77
2021/11/30 00:19:26;;;;;;;2.40;2.20;;;4.10;99.90;;;;;;4983901;28;20074;-74
2021/11/30 00:21:52;;;;;;;4.05;2.47;;;4.10;99.90;;;;;;4979046;28;20173;-75
2021/11/30 00:24:18;;;;;;;2.90;2.60;;;4.10;99.90;;;;;;4988153;28;20473;-73
2021/11/30 00:26:44;;;;;;;6.22;2.90;;;4.20;99.90;;;;;;4981887;28;20027;-74
2021/11/30 00:29:10;;;;;;;3.25;2.35;;;4.20;99.90;;;;;;4985954;28;20109;-75
2021/11/30 00:31:35;;;;;;;6.45;2.53;;;4.20;99.90;;;;;;4985393;28;20122;-75
2021/11/30 00:34:01;;;;;;;2.78;2.50;;;4.20;99.90;;;;;;4989223;28;20026;-75
2021/11/30 00:36:27;;;;;;;3.65;2.40;;;4.10;99.90;;;;;;4989070;28;20026;-75
2021/11/30 00:38:52;;;;;;;3.97;2.35;;;4.10;99.90;;;;;;4987359;28;20388;-76
2021/11/30 00:41:18;;;;;;;2.28;2.08;;;4.10;99.90;;;;;;4988766;28;20101;-75
2021/11/30 00:43:44;;;;;;;3.25;2.60;;;4.00;99.90;;;;;;4988699;28;20114;-75
2021/11/30 00:46:20;;;;;;;3.08;2.22;;;4.10;99.90;;;;;;4989419;28;20396;-75
2021/11/30 00:48:46;;;;;;;4.65;2.83;;;3.90;99.90;;;;;;4987276;28;20062;-75
2021/11/30 00:51:17;;;;;;;4.57;2.42;;;3.80;99.90;;;;;;4985325;28;20089;-75
2021/11/30 00:53:47;;;;;;;3.25;2.20;;;3.70;99.90;;;;;;5003503;28;20085;-76
2021/11/30 00:56:14;;;;;;;2.58;2.38;;;3.70;99.90;;;;;;5011292;28;20052;-74
2021/11/30 00:58:41;;;;;;;5.47;2.13;;;3.60;99.90;;;;;;5000828;28;20085;-74
2021/11/30 01:01:07;;;;;;;3.33;2.20;;;3.70;99.90;;;;;;5002197;28;20027;-76
2021/11/30 01:03:34;;;;;;;5.63;3.00;;;3.70;99.90;;;;;;4988954;28;20061;-74
2021/11/30 01:05:59;;;;;;;2.17;1.73;;;3.90;99.90;;;;;;4987318;28;20042;-75
2021/11/30 01:08:25;;;;;;;2.53;2.22;;;3.90;99.90;;;;;;4985954;28;20045;-74
2021/11/30 01:10:52;;;;;;;3.25;2.95;;;4.20;99.90;;;;;;4987931;28;20030;-75
2021/11/30 01:13:19;;;;;;;2.80;2.40;;;4.30;99.90;;;;;;4987215;28;20030;-75
2021/11/30 01:15:45;;;;;;;3.85;2.38;;;4.50;99.90;;;;;;4985784;28;20022;-76
2021/11/30 01:18:11;;;;;;;1.63;1.48;;;4.50;99.90;;;;;;4988669;28;20484;-77
2021/11/30 01:20:37;;;;;;;2.88;2.67;;;4.50;99.90;;;;;;4991184;28;20407;-75
2021/11/30 01:23:05;;;;;;;3.08;2.63;;;4.50;99.90;;;;;;4991032;28;20501;-75
2021/11/30 01:25:32;;;;;;;3.17;1.95;;;4.50;99.90;;;;;;4987115;28;20040;-75
2021/11/30 01:27:57;;;;;;;2.47;2.28;;;4.60;99.90;;;;;;4989909;28;20500;-78
2021/11/30 01:30:23;;;;;;;2.67;1.92;;;4.50;99.90;;;;;;4986290;28;20094;-75
2021/11/30 01:32:50;;;;;;;2.00;1.80;;;4.40;99.90;;;;;;4992550;28;20113;-75
2021/11/30 01:35:18;;;;;;;3.35;2.00;;;4.40;99.90;;;;;;4984397;28;20352;-75
2021/11/30 01:37:48;;;;;;;3.53;3.13;;;4.40;99.90;;;;;;4992636;28;20097;-76
2021/11/30 01:40:18;;;;;;;2.50;2.03;;;4.40;99.90;;;;;;4992140;28;20515;-74
2021/11/30 01:42:46;;;;;;;3.17;2.63;;;4.40;99.90;;;;;;4990598;28;20049;-76
2021/11/30 01:50:55;;;;;;;2.88;2.42;;;4.20;99.90;;;;;;4990699;28;20054;-74
2021/11/30 01:53:22;;;;;;;2.47;1.85;;;4.20;99.90;;;;;;4986399;28;20018;-75
2021/11/30 01:55:48;;;;;;;3.03;2.72;;;4.20;99.90;;;;;;4990431;28;20023;-75
2021/11/30 01:58:14;;;;;;;3.42;2.53;;;4.20;99.90;;;;;;4988256;28;20085;-75
2021/11/30 02:00:41;;;;;;;1.85;1.75;;;4.20;99.90;;;;;;4989454;28;20036;-75
2021/11/30 02:03:07;;;;;;;3.47;1.90;;;4.30;99.90;;;;;;4992131;28;20027;-75
2021/11/30 02:05:35;;;;;;;3.33;2.13;;;4.30;99.90;;;;;;4990012;28;20053;-75
2021/11/30 02:08:01;;;;;;;4.05;2.47;;;4.30;99.90;;;;;;4983891;28;20108;-75
2021/11/30 02:10:28;;;;;;;4.03;3.42;;;4.20;99.90;;;;;;4992590;28;20037;-75
2021/11/30 02:12:54;;;;;;;2.95;2.70;;;4.10;99.90;;;;;;4991962;28;20025;-75
2021/11/30 02:15:22;;;;;;;3.72;2.83;;;3.90;99.90;;;;;;4992081;28;20019;-74
2021/11/30 02:17:49;;;;;;;3.05;2.33;;;3.90;99.90;;;;;;4990048;28;20023;-74
2021/11/30 02:20:14;;;;;;;2.90;2.50;;;3.90;99.90;;;;;;4990348;28;20030;-74
2021/11/30 02:22:47;;;;;;;3.03;2.72;;;3.80;99.90;;;;;;4991691;28;20369;-73
2021/11/30 02:25:12;;;;;;;2.85;2.65;;;3.80;99.90;;;;;;4985515;28;20038;-73
2021/11/30 02:27:38;;;;;;;2.50;2.30;;;3.80;99.90;;;;;;4990330;28;20030;-74
2021/11/30 02:30:04;;;;;;;1.80;1.63;;;3.80;99.90;;;;;;4989833;28;20337;-74
2021/11/30 02:32:30;;;;;;;4.38;2.70;;;3.80;99.90;;;;;;4986649;28;20050;-73
2021/11/30 02:34:56;;;;;;;6.43;2.05;;;3.70;99.90;;;;;;4986924;28;20026;-73
2021/11/30 02:37:28;;;;;;;2.40;2.20;;;3.70;99.90;;;;;;4990745;28;20039;-74
2021/11/30 02:39:54;;;;;;;4.15;2.20;;;3.70;99.90;;;;;;4989369;28;20122;-73
2021/11/30 02:42:20;;;;;;;2.45;2.00;;;3.60;99.90;;;;;;4990209;28;20034;-74
2021/11/30 02:44:46;;;;;;;3.83;2.40;;;3.60;99.90;;;;;;4982856;28;20039;-74
2021/11/30 02:47:13;;;;;;;3.15;2.30;;;3.60;99.90;;;;;;4989614;28;20038;-74
2021/11/30 02:49:42;;;;;;;8.10;2.92;;;3.60;99.90;;;;;;4992036;28;20030;-74
2021/11/30 02:52:18;;;;;;;2.28;1.90;;;3.50;99.90;;;;;;4989984;28;20098;-74
2021/11/30 02:54:47;;;;;;;2.42;2.22;;;3.40;99.90;;;;;;4985445;28;20022;-75
2021/11/30 02:57:15;;;;;;;2.13;1.92;;;3.40;99.90;;;;;;4995125;28;20043;-74
2021/11/30 02:59:44;;;;;;;4.72;2.95;;;3.40;99.90;;;;;;4985542;28;20050;-74
2021/11/30 03:02:15;;;;;;;5.07;3.20;;;3.30;99.90;;;;;;4991213;28;20109;-74
2021/11/30 03:04:44;;;;;;;3.55;2.25;;;3.30;99.90;;;;;;4985725;28;20018;-75
2021/11/30 03:07:19;;;;;;;6.63;3.28;;;3.20;99.90;;;;;;4989891;28;20034;-75
2021/11/30 03:09:45;;;;;;;2.28;1.90;;;3.10;99.90;;;;;;5008078;28;20037;-74
2021/11/30 03:12:11;;;;;;;4.00;2.85;;;3.10;99.90;;;;;;5007906;28;20081;-75
2021/11/30 03:14:38;;;;;;;4.13;2.60;;;2.90;99.90;;;;;;4990551;28;20045;-74
2021/11/30 03:17:04;;;;;;;4.55;3.25;;;2.90;99.90;;;;;;4988377;28;20097;-73
2021/11/30 03:19:31;;;;;;;2.60;2.25;;;2.80;99.90;;;;;;4984032;28;20098;-75
2021/11/30 03:21:59;;;;;;;2.17;1.65;;;3.00;99.90;;;;;;4991156;28;20114;-74
2021/11/30 03:24:25;;;;;;;3.47;2.22;;;3.20;99.90;;;;;;4993115;28;20027;-74
2021/11/30 03:26:51;;;;;;;3.35;1.70;;;3.40;99.90;;;;;;4987505;28;20464;-75
2021/11/30 03:29:17;;;;;;;3.65;2.03;;;3.50;99.90;;;;;;5000048;28;20046;-74
2021/11/30 03:34:11;;;;;;;2.78;1.92;;;3.70;99.90;;;;;;4988668;28;20031;-75
2021/11/30 03:36:39;;;;;;;2.45;1.65;;;3.70;99.90;;;;;;4986957;28;20448;-74
2021/11/30 03:39:09;;;;;;;4.63;2.33;;;3.80;99.90;;;;;;4990193;28;20026;-74
2021/11/30 03:41:35;;;;;;;6.32;2.38;;;3.70;99.90;;;;;;4989709;28;20401;-75
2021/11/30 03:44:03;;;;;;;2.42;2.08;;;3.50;99.90;;;;;;4986709;28;20057;-74
2021/11/30 03:46:31;;;;;;;2.53;1.80;;;3.40;99.90;;;;;;4985664;28;20029;-75
2021/11/30 03:48:56;;;;;;;3.63;2.75;;;3.20;99.90;;;;;;4985818;28;20030;-75
2021/11/30 03:51:22;;;;;;;3.22;1.75;;;3.20;99.90;;;;;;4984420;28;20046;-75
2021/11/30 03:53:48;;;;;;;2.72;1.98;;;3.10;99.90;;;;;;4990602;28;20037;-75
2021/11/30 03:56:14;;;;;;;2.53;2.30;;;3.30;99.90;;;;;;4990449;28;20042;-75
2021/11/30 03:58:39;;;;;;;5.80;2.78;;;3.30;99.90;;;;;;4988414;28;20065;-74
2021/11/30 04:01:05;;;;;;;3.47;2.55;;;3.20;99.90;;;;;;4989316;28;20080;-74
2021/11/30 04:03:33;;;;;;;3.70;2.42;;;3.10;99.90;;;;;;4986971;28;20034;-74
2021/11/30 04:06:03;;;;;;;3.28;2.63;;;3.10;99.90;;;;;;4973985;28;20457;-74
2021/11/30 04:08:28;;;;;;;4.10;2.65;;;3.10;99.90;;;;;;4983899;28;20479;-74
2021/11/30 04:10:54;;;;;;;2.25;2.05;;;3.10;99.90;;;;;;4988009;28;20065;-75
2021/11/30 04:13:20;;;;;;;2.90;2.10;;;3.00;99.90;;;;;;4988929;28;20104;-73
2021/11/30 04:15:46;;;;;;;5.95;2.35;;;3.00;99.90;;;;;;4989085;28;20436;-76
2021/11/30 04:18:13;;;;;;;3.63;2.75;;;2.90;99.90;;;;;;4987288;28;20050;-76
2021/11/30 04:20:38;;;;;;;4.38;2.38;;;2.90;99.90;;;;;;4989509;28;20452;-76
2021/11/30 04:23:04;;;;;;;4.43;2.05;;;2.80;99.90;;;;;;4990447;28;20030;-74
2021/11/30 04:25:30;;;;;;;3.13;2.20;;;2.80;99.90;;;;;;4987261;28;20036;-74
2021/11/30 04:27:56;;;;;;;6.45;2.45;;;2.80;99.90;;;;;;4980653;28;20048;-76
2021/11/30 04:30:22;;;;;;;3.22;2.15;;;2.70;99.90;;;;;;4981142;28;20488;-76
2021/11/30 04:32:48;;;;;;;2.08;1.70;;;2.60;99.90;;;;;;4988706;28;20023;-75
2021/11/30 04:35:14;;;;;;;3.15;1.90;;;2.70;99.90;;;;;;4987743;28;20081;-75
2021/11/30 04:37:40;;;;;;;9.85;2.25;;;2.80;99.90;;;;;;4986642;28;20030;-75
2021/11/30 04:40:08;;;;;;;4.07;2.70;;;2.90;99.90;;;;;;4988942;28;20062;-76
2021/11/30 04:42:34;;;;;;;2.55;1.98;;;2.80;99.90;;;;;;4985291;28;20438;-75
2021/11/30 04:45:06;;;;;;;6.53;2.08;;;2.70;99.90;;;;;;4987851;28;20038;-76
2021/11/30 04:47:35;;;;;;;2.28;2.03;;;2.50;99.90;;;;;;4989064;28;20031;-75
2021/11/30 04:50:05;;;;;;;5.80;1.70;;;2.40;99.90;;;;;;4985923;28;20030;-75
2021/11/30 04:52:31;;;;;;;3.63;2.28;;;2.30;99.90;;;;;;4988452;28;20376;-75
2021/11/30 04:54:58;;;;;;;2.67;2.45;;;2.30;99.90;;;;;;4982130;28;20460;-75
2021/11/30 04:57:25;;;;;;;6.30;2.22;;;2.40;99.90;;;;;;4991514;28;20146;-75
2021/11/30 04:59:51;;;;;;;5.43;1.70;;;2.40;99.90;;;;;;4991824;28;20057;-75
2021/11/30 05:02:17;;;;;;;2.08;1.80;;;2.40;99.90;;;;;;4993199;28;20081;-74
2021/11/30 05:04:43;;;;;;;3.00;2.15;;;2.60;99.90;;;;;;4991935;28;20086;-75
2021/11/30 05:07:09;;;;;;;4.28;2.17;;;2.70;99.90;;;;;;4992600;28;20088;-75
2021/11/30 05:09:35;;;;;;;2.85;2.45;;;2.70;99.90;;;;;;4990182;28;20022;-75
2021/11/30 05:12:02;;;;;;;6.20;2.42;;;2.80;99.90;;;;;;4993165;28;20118;-76
2021/11/30 05:14:27;;;;;;;4.68;2.20;;;2.80;99.90;;;;;;5009753;28;20054;-75
2021/11/30 05:16:53;;;;;;;4.35;2.78;;;2.70;99.90;;;;;;5009760;28;20082;-76
2021/11/30 05:19:19;;;;;;;2.80;2.22;;;2.70;99.90;;;;;;4996540;28;20026;-75
2021/11/30 05:21:45;;;;;;;2.28;2.08;;;2.60;99.90;;;;;;4991645;28;20038;-74
2021/11/30 05:24:10;;;;;;;6.18;3.20;;;2.60;99.90;;;;;;4992278;28;20022;-74
2021/11/30 05:26:37;;;;;;;6.05;3.63;;;2.60;99.90;;;;;;4981667;28;20362;-75
2021/11/30 05:29:04;;;;;;;3.75;2.72;;;2.60;99.90;;;;;;4992723;28;20391;-74
2021/11/30 05:31:29;;;;;;;4.15;2.85;;;2.50;99.90;;;;;;4987846;28;20265;-74
2021/11/30 05:33:56;;;;;;;5.05;3.78;;;2.50;99.90;;;;;;4993585;28;20532;-74
2021/11/30 05:36:22;;;;;;;4.95;2.88;;;2.50;99.90;;;;;;4987251;28;20097;-75
2021/11/30 05:38:48;;;;;;;4.20;2.97;;;2.30;99.90;;;;;;4983675;28;20102;-74
2021/11/30 05:41:14;;;;;;;6.40;3.67;;;2.30;99.90;;;;;;4985609;28;20134;-75
2021/11/30 05:43:40;;;;;;;5.47;3.78;;;2.40;99.90;;;;;;4991701;28;20560;-75
2021/11/30 05:46:06;;;;;;;5.53;3.78;;;2.40;99.90;;;;;;4993890;28;20042;-74
2021/11/30 05:48:33;;;;;;;4.05;2.50;;;2.30;99.90;;;;;;4992150;28;20026;-74
2021/11/30 05:51:00;;;;;;;8.35;2.95;;;2.30;99.90;;;;;;4990563;28;20038;-75
2021/11/30 05:53:26;;;;;;;4.85;3.13;;;2.30;99.90;;;;;;4989093;28;20253;-74
2021/11/30 05:55:58;;;;;;;5.95;2.65;;;2.30;99.90;;;;;;4982414;28;20370;-74
2021/11/30 05:58:24;;;;;;;5.38;3.45;;;2.20;99.90;;;;;;4992105;28;20033;-74
2021/11/30 06:00:50;;;;;;;2.25;1.95;;;2.30;99.90;;;;;;4991100;28;20586;-75
2021/11/30 06:05:46;;;;;;;3.72;2.65;;;2.20;99.90;;;;;;4988728;28;20029;-74
2021/11/30 06:08:12;;;;;;;4.93;4.00;;;2.10;99.90;;;;;;4993986;28;20109;-74
2021/11/30 06:10:38;;;;;;;6.65;3.55;;;2.10;99.90;;;;;;4992128;28;20026;-75
2021/11/30 06:13:04;;;;;;;6.78;2.90;;;2.10;99.90;;;;;;4992061;28;20349;-73
2021/11/30 06:15:31;;;;;;;4.50;2.78;;;2.10;99.90;;;;;;4993073;28;20093;-74
2021/11/30 06:17:57;;;;;;;3.78;2.70;;;2.20;99.90;;;;;;4988440;28;20389;-74
2021/11/30 06:20:23;;;;;;;3.70;3.30;;;2.20;99.90;;;;;;4988945;28;20026;-73
2021/11/30 06:22:49;;;;;;;5.47;2.75;;;2.30;99.90;;;;;;4990691;28;20026;-75
2021/11/30 06:25:15;;;;;;;3.78;2.85;;;2.20;99.90;;;;;;4991584;28;20089;-74
2021/11/30 06:27:41;;;;;;;4.22;3.38;;;2.20;99.90;;;;;;4989896;28;20053;-76
2021/11/30 06:30:07;;;;;;;4.63;2.75;;;2.10;99.90;;;;;;4990908;28;20038;-75
2021/11/30 06:32:33;;;;;;;8.23;3.03;;;2.20;99.90;;;;;;4989396;28;20052;-75
2021/11/30 06:34:59;;;;;;;3.42;2.70;;;2.20;99.90;;;;;;4984953;28;20453;-68
2021/11/30 06:37:25;;;;;;;8.13;3.15;;;2.30;99.90;;;;;;4992216;28;20041;-67
2021/11/30 06:39:52;;;;;;;4.72;2.60;;;2.30;99.90;;;;;;4991734;28;20125;-66
2021/11/30 06:42:18;;;;;;;3.78;2.72;;;2.30;99.90;;;;;;4989054;28;20290;-66
2021/11/30 06:44:46;;;;;;;3.70;2.30;;;2.30;99.90;;;;;;4990590;28;20097;-67
2021/11/30 06:47:12;;;;;;;5.43;2.50;;;2.40;99.90;;;;;;4984693;28;20077;-66
2021/11/30 06:49:37;;;;;;;3.22;2.83;;;2.40;99.90;;;;;;4991814;28;20018;-66
2021/11/30 06:52:03;;;;;;;5.07;3.65;;;2.40;99.90;;;;;;4991552;28;20117;-66
2021/11/30 06:54:29;;;;;;;7.00;3.08;;;2.30;99.90;;;;;;4992172;28;20032;-66
2021/11/30 06:56:55;;;;;;;7.10;3.17;;;2.30;99.90;;;;;;4992899;28;20988;-68
2021/11/30 06:59:45;;;;;;;6.50;3.00;;;2.30;99.90;;;;;;4991607;28;20396;-68
2021/11/30 07:02:12;;;;;;;7.72;3.28;;;2.30;99.90;;;;;;4984268;28;20034;-67
2021/11/30 07:04:42;;;;;;;7.53;2.88;;;2.30;99.90;;;;;;4990742;28;20072;-67
2021/11/30 07:10:10;;;;;;;9.73;2.90;;;2.50;99.90;;;;;;4991243;28;20065;-67
2021/11/30 07:15:06;;;;;;;4.40;2.92;;;2.70;99.90;;;;;;4991278;28;20061;-66
2021/11/30 07:17:32;;;;;;;6.90;3.10;;;2.80;99.90;;;;;;4989653;28;20018;-66
2021/11/30 07:19:58;;;;;;;9.18;3.28;;;2.90;99.90;;;;;;4979882;28;20402;-67
2021/11/30 07:22:25;;;;;;;5.50;3.47;;;3.00;99.90;;;;;;4995434;28;20546;-69
2021/11/30 07:24:51;;;;;;;5.40;3.42;;;3.30;99.90;;;;;;4993039;28;20049;-66
2021/11/30 07:27:16;;;;;;;9.65;3.85;;;3.50;99.90;;;;;;4990853;28;20329;-66
2021/11/30 07:29:42;;;;;;;3.33;2.88;;;3.80;99.90;;;;;;4989835;28;20030;-66
2021/11/30 07:32:08;;;;;;;4.47;3.35;;;4.00;99.90;;;;;;4990622;28;20023;-66
2021/11/30 07:34:35;;;;;;;17.58;3.75;;;4.20;99.90;;;;;;4988920;28;20495;-66
2021/11/30 07:37:00;;;;;;;9.40;3.53;;;4.30;99.90;;;;;;4990921;28;20026;-68
2021/11/30 07:39:27;;;;;;;4.90;2.70;;;4.40;99.90;;;;;;4989578;28;20023;-67
2021/11/30 07:41:52;;;;;;;10.77;3.65;;;4.60;99.90;;;;;;4989694;28;20034;-66
2021/11/30 07:44:18;;;;;;;4.15;3.35;;;4.80;99.90;;;;;;4989984;28;20427;-66
2021/11/30 07:46:45;;;;;;;4.93;3.05;;;4.80;99.90;;;;;;4990921;28;20407;-66
2021/11/30 07:49:12;;;;;;;6.07;3.20;;;4.80;99.90;;;;;;4991152;28;20022;-67
2021/11/30 07:51:38;;;;;;;5.43;3.20;;;4.90;99.90;;;;;;4986721;28;20488;-65
2021/11/30 07:54:04;;;;;;;4.55;3.13;;;4.90;99.90;;;;;;4985324;28;20026;-67
2021/11/30 07:56:31;;;;;;;5.75;3.17;;;5.00;99.90;;;;;;4990229;28;20085;-66
2021/11/30 07:58:57;;;;;;;4.15;2.92;;;5.30;99.90;;;;;;4991256;28;20464;-66
2021/11/30 08:01:23;;;;;;;6.72;4.22;;;5.60;99.90;;;;;;4990076;28;20084;-65
2021/11/30 08:03:49;;;;;;;7.68;3.33;;;5.80;99.90;;;;;;4986863;28;20030;-65
2021/11/30 08:06:15;;;;;;;5.47;3.30;;;5.60;99.90;;;;;;4990783;28;20092;-66
2021/11/30 08:08:41;;;;;;;9.18;3.88;;;5.70;99.90;;;;;;4990895;28;20489;-66
2021/11/30 08:11:07;;;;;;;4.30;2.90;;;5.80;99.90;;;;;;4989786;28;20034;-67
2021/11/30 08:13:33;;;;;;;8.43;3.47;;;5.90;99.90;;;;;;4991045;28;20105;-66
2021/11/30 08:15:59;;;;;;;6.03;4.10;;;5.80;99.90;;;;;;4990296;28;20153;-65
2021/11/30 08:18:26;;;;;;;9.68;4.63;;;6.00;99.90;;;;;;4990782;28;20046;-68
2021/11/30 08:20:52;;;;;;;7.70;4.60;;;6.20;99.90;;;;;;4988494;28;20019;-67
2021/11/30 08:23:18;;;;;;;10.07;5.45;;;6.30;99.90;;;;;;4990720;28;20033;-66
2021/11/30 08:25:44;;;;;;;15.25;5.07;;;6.40;99.90;;;;;;4989780;28;20026;-68
2021/11/30 08:28:10;;;;;;;12.38;5.50;;;6.60;99.90;;;;;;4991353;28;20551;-67
2021/11/30 08:30:36;;;;;;;14.70;5.60;;;6.70;99.90;;;;;;4984304;28;20073;-66
2021/11/30 08:33:03;;;;;;;7.93;5.13;;;6.40;99.90;;;;;;4990288;28;20113;-66
2021/11/30 08:35:29;;;;;;;12.05;4.50;;;6.40;99.90;;;;;;4990442;28;20029;-66
2021/11/30 08:37:54;;;;;;;11.05;5.72;;;6.40;99.90;;;;;;4990299;28;20101;-66
2021/11/30 08:40:20;;;;;;;6.45;4.60;;;6.50;99.90;;;;;;4989938;28;20035;-66
2021/11/30 08:42:46;;;;;;;8.98;3.47;;;6.60;99.90;;;;;;4990074;28;20026;-66
2021/11/30 08:45:12;;;;;;;9.73;3.20;;;6.60;99.90;;;;;;4990066;28;20370;-66
2021/11/30 08:47:39;;;;;;;8.82;4.30;;;6.70;99.90;;;;;;4990352;28;20030;-67
2021/11/30 08:50:16;;;;;;;6.53;4.20;;;6.90;99.90;;;;;;4987156;28;20065;-67
2021/11/30 08:52:42;;;;;;;8.63;4.82;;;7.20;99.90;;;;;;4990041;28;20022;-66
2021/11/30 08:55:09;;;;;;;4.28;3.03;;;7.50;99.90;;;;;;4990023;28;20358;-66
2021/11/30 08:57:36;;;;;;;9.50;3.22;;;7.80;99.90;;;;;;4989651;28;20026;-67
2021/11/30 09:00:06;;;;;;;9.00;3.58;;;8.00;99.90;;;;;;4990257;28;20113;-66
2021/11/30 09:02:32;;;;;;;4.22;2.53;;;8.30;99.90;;;;;;4988836;28;20485;-66
2021/11/30 09:04:57;;;;;;;10.10;3.17;;;8.50;99.90;;;;;;4989115;28;20046;-66
2021/11/30 09:07:23;;;;;;;7.38;3.10;;;8.60;99.90;;;;;;4989684;28;20064;-66
2021/11/30 09:09:49;;;;;;;5.20;2.70;;;8.80;99.90;;;;;;4988866;28;20427;-66
2021/11/30 09:12:17;;;;;;;7.80;3.60;;;8.70;99.90;;;;;;4987196;28;20041;-67
2021/11/30 09:14:45;;;;;;;10.00;3.97;;;8.50;99.90;;;;;;4990103;28;20105;-67
2021/11/30 09:17:12;;;;;;;7.05;4.55;;;8.50;99.90;;;;;;4986128;28;20034;-66
2021/11/30 09:19:38;;;;;;;13.93;5.53;;;8.30;99.90;;;;;;4990340;28;20022;-66
2021/11/30 09:22:04;;;;;;;10.10;5.47;;;8.40;99.90;;;;;;4986431;28;20038;-66
2021/11/30 09:24:31;;;;;;;10.32;3.83;;;8.40;99.90;;;;;;4984016;28;20022;-67
2021/11/30 09:26:57;;;;;;;15.02;5.15;;;8.60;99.90;;;;;;4984760;28;20038;-67
2021/11/30 09:29:23;;;;;;;10.43;5.68;;;8.60;99.90;;;;;;4987653;28;20117;-67
2021/11/30 09:31:49;;;;;;;10.98;5.68;;;8.60;99.90;;;;;;4987815;28;20153;-68
2021/11/30 09:34:14;;;;;;;14.30;6.15;;;8.70;99.90;;;;;;4989923;28;20022;-67
2021/11/30 09:36:43;;;;;;;12.07;5.47;;;8.70;99.90;;;;;;4988432;28;20425;-66
2021/11/30 09:39:09;;;;;;;13.50;5.40;;;8.70;99.90;;;;;;4990987;28;20399;-67
2021/11/30 09:41:35;;;;;;;5.70;3.38;;;8.80;99.90;;;;;;4992495;28;20030;-68
2021/11/30 09:44:01;;;;;;;10.98;5.63;;;8.80;99.90;;;;;;4992482;28;20034;-66
2021/11/30 09:46:27;;;;;;;15.27;5.45;;;8.70;99.90;;;;;;4991888;28;20030;-67
2021/11/30 09:48:53;;;;;;;16.15;5.70;;;8.90;99.90;;;;;;4991151;28;20037;-67
2021/11/30 09:51:20;;;;;;;10.45;4.18;;;8.90;99.90;;;;;;4992596;28;20034;-67
2021/11/30 09:53:46;;;;;;;6.50;4.20;;;9.10;99.90;;;;;;4992944;28;20062;-67
2021/11/30 09:56:12;;;;;;;12.48;4.38;;;9.20;99.90;;;;;;4992731;28;20026;-67
2021/11/30 09:58:39;;;;;;;9.90;7.05;;;9.30;99.90;;;;;;4990479;28;20257;-67
2021/11/30 10:01:09;;;;;;;7.32;3.58;;;9.40;99.90;;;;;;4991121;28;20026;-67
2021/11/30 10:03:36;;;;;;;7.88;5.15;;;9.50;99.90;;;;;;4992964;28;20611;-67
2021/11/30 10:06:02;;;;;;;5.22;3.60;;;9.40;99.90;;;;;;4992372;28;20026;-67
2021/11/30 10:08:34;;;;;;;6.10;4.10;;;9.50;99.90;;;;;;4991712;28;20189;-68
2021/11/30 10:11:00;;;;;;;;;;;9.70;99.90;;;;;;4990253;28;20022;-66
2021/11/30 10:13:27;;;;;;;6.63;4.28;;;9.70;99.90;;;;;;4992307;28;19918;-66
2021/11/30 10:15:56;;;;;;;4.63;3.28;;;9.70;99.90;;;;;;4991509;28;20056;-67
2021/11/30 10:18:24;;;;;;;6.15;3.17;;;9.50;99.90;;;;;;4990946;28;20104;-65
2021/11/30 10:20:54;;;;;;;6.50;3.40;;;9.50;99.90;;;;;;4985244;28;20393;-67
2021/11/30 10:23:22;;;;;;;7.65;4.43;;;9.40;99.90;;;;;;4992574;28;20061;-67
2021/11/30 10:25:49;;;;;;;6.47;3.50;;;9.30;99.90;;;;;;4990813;28;20038;-68
2021/11/30 10:28:19;;;;;;;8.32;4.40;;;9.40;99.90;;;;;;4989707;28;20122;-67
2021/11/30 10:30:49;;;;;;;5.05;3.33;;;9.40;99.90;;;;;;4990600;28;20113;-67
2021/11/30 10:33:20;;;;;;;5.20;3.88;;;9.50;99.90;;;;;;4991758;28;20061;-68
2021/11/30 10:35:55;;;;;;;5.65;3.78;;;9.60;99.90;;;;;;4987589;28;20026;-67
2021/11/30 10:38:30;;;;;;;4.85;4.05;;;9.70;99.90;;;;;;4986146;28;20063;-68
2021/11/30 10:41:13;;;;;;;7.22;4.45;;;9.70;99.90;;;;;;4990917;28;20113;-67
2021/11/30 10:43:39;;;;;;;;;;;9.80;99.90;;;;;;4994337;28;20026;-67
2021/11/30 10:46:18;;;;;;;5.50;3.40;;;9.80;99.90;;;;;;4991460;28;20312;-67
2021/11/30 10:48:44;;;;;;;4.65;3.05;;;10.00;99.90;;;;;;4990943;28;20480;-66
2021/11/30 10:51:09;;;;;;;4.32;3.90;;;9.90;99.90;;;;;;4991028;28;20029;-68
2021/11/30 10:53:35;;;;;;;4.55;4.13;;;10.10;99.90;;;;;;4992318;28;20023;-67
2021/11/30 10:56:07;;;;;;;5.85;4.13;;;10.00;99.90;;;;;;4991314;28;20027;-67
2021/11/30 10:58:42;;;;;;;11.82;4.53;;;9.90;99.90;;;;;;4990192;28;20124;-67
2021/11/30 11:01:14;;;;;;;7.53;4.20;;;10.00;99.90;;;;;;4991177;28;20149;-68
2021/11/30 11:03:40;;;;;;;4.10;3.70;;;9.80;99.90;;;;;;4991651;28;20030;-67
2021/11/30 11:09:04;;;;;;;5.93;3.72;;;9.70;99.90;;;;;;4991103;28;20041;-66
2021/11/30 11:11:38;;;;;;;4.70;3.70;;;9.60;99.90;;;;;;5006483;28;20034;-67
2021/11/30 11:14:15;;;;;;;7.78;4.93;;;9.60;99.90;;;;;;4991065;28;20052;-67
2021/11/30 11:16:42;;;;;;;5.07;4.18;;;9.40;99.90;;;;;;4988952;28;20479;-66
2021/11/30 11:19:09;;;;;;;5.63;3.63;;;9.30;99.90;;;;;;4985421;28;20488;-67
2021/11/30 11:21:41;;;;;;;6.30;4.20;;;9.40;99.90;;;;;;4987612;28;20034;-66
2021/11/30 11:24:13;;;;;;;4.65;3.92;;;9.40;99.90;;;;;;4989826;28;20026;-67
2021/11/30 11:26:41;;;;;;;4.97;3.92;;;9.40;99.90;;;;;;4990905;28;20109;-68
2021/11/30 11:29:14;;;;;;;9.77;5.25;;;9.40;99.90;;;;;;4988965;28;20495;-68
2021/11/30 11:31:42;;;;;;;5.25;4.75;;;9.40;99.90;;;;;;4988021;28;20030;-67
2021/11/30 11:34:09;;;;;;;7.47;6.43;;;9.40;99.90;;;;;;4989614;28;20149;-68
2021/11/30 11:36:36;;;;;;;8.35;5.53;;;9.40;99.90;;;;;;4990436;28;20094;-67
2021/11/30 11:39:04;;;;;;;7.13;5.32;;;9.40;99.90;;;;;;4990387;28;20116;-67
2021/11/30 11:41:30;;;;;;;5.38;4.30;;;9.40;99.90;;;;;;4990479;28;20053;-68
2021/11/30 11:43:58;;;;;;;10.82;5.22;;;9.60;99.90;;;;;;4988960;28;20070;-68
2021/11/30 11:46:26;;;;;;;4.68;3.38;;;9.70;99.90;;;;;;4990000;28;20023;-69
2021/11/30 11:48:57;;;;;;;7.05;4.88;;;9.90;99.90;;;;;;4985142;28;20023;-68
2021/11/30 11:51:31;;;;;;;4.97;3.47;;;10.00;99.90;;;;;;4991279;28;20169;-68
2021/11/30 11:53:57;;;;;;;6.13;5.50;;;10.10;99.90;;;;;;4991147;28;20026;-68
2021/11/30 11:56:29;;;;;;;9.70;6.78;;;10.00;99.90;;;;;;4986129;28;20386;-67
2021/11/30 11:59:18;;;;;;;9.02;6.53;;;9.90;99.90;;;;;;4990154;28;20022;-67
2021/11/30 12:01:47;;;;;;;6.50;5.85;;;9.90;99.90;;;;;;4988757;28;20037;-68
2021/11/30 12:04:15;;;;;;;5.28;4.00;;;9.90;99.90;;;;;;4985059;28;20037;-68
2021/11/30 12:07:07;;;;;;;6.00;4.32;;;9.90;99.90;;;;;;4990909;28;20026;-69
2021/11/30 12:09:34;;;;;;;5.78;5.25;;;9.90;99.90;;;;;;4986881;28;20101;-67
2021/11/30 12:12:10;;;;;;;5.63;4.47;;;9.90;99.90;;;;;;4989098;28;20034;-67
2021/11/30 12:14:44;;;;;;;5.07;4.57;;;10.00;99.90;;;;;;4990266;28;20124;-66
2021/11/30 12:17:10;;;;;;;5.22;4.82;;;10.10;99.90;;;;;;4989499;28;20548;-66
2021/11/30 12:19:47;;;;;;;7.68;5.13;;;10.00;99.90;;;;;;4988583;28;20121;-67
2021/11/30 12:22:51;;;;;;;6.32;4.63;;;10.10;99.90;;;;;;4985196;28;20026;-67
2021/11/30 12:25:26;;;;;;;6.55;5.85;;;10.30;99.90;;;;;;4983227;28;20034;-67
2021/11/30 12:28:03;;;;;;;7.38;6.78;;;10.40;99.90;;;;;;4989592;28;20026;-69
2021/11/30 12:30:42;;;;;;;9.77;8.65;;;10.50;99.90;;;;;;4988715;28;20439;-68
2021/11/30 12:33:17;;;;;;;8.63;7.43;;;10.50;99.90;;;;;;4987989;28;20027;-68
2021/11/30 12:35:58;;;;;;;8.50;7.38;;;10.40;99.90;;;;;;4989866;28;20102;-68
2021/11/30 12:38:50;;;;;;;7.97;7.20;;;10.30;99.90;;;;;;4987963;28;20026;-68
2021/11/30 12:41:38;;;;;;;8.45;7.35;;;10.10;99.90;;;;;;4988434;28;20042;-67
2021/11/30 12:44:11;;;;;;;6.55;5.82;;;10.00;99.90;;;;;;4990522;28;20116;-67
2021/11/30 12:46:46;;;;;;;5.38;4.70;;;10.00;99.90;;;;;;4989918;28;20030;-69
2021/11/30 12:49:30;;;;;;;3.40;3.10;;;10.00;99.90;;;;;;4992147;28;20129;-68
2021/11/30 12:52:16;;;;;;;6.65;4.57;;;10.00;99.90;;;;;;4990300;28;20120;-69
2021/11/30 12:54:50;;;;;;;4.40;3.38;;;10.10;99.90;;;;;;4990301;28;20037;-68
2021/11/30 12:57:39;;;;;;;6.82;3.58;;;10.20;99.90;;;;;;4989461;28;20559;-67
2021/11/30 13:00:11;;;;;;;3.53;3.20;;;10.20;99.90;;;;;;4987676;28;20096;-68
2021/11/30 13:02:41;;;;;;;3.88;3.30;;;10.10;99.90;;;;;;4990752;28;20018;-67
2021/11/30 13:05:09;;;;;;;4.55;3.25;;;10.00;99.90;;;;;;4990129;28;20040;-68
2021/11/30 13:07:57;;;;;;;3.95;2.95;;;9.90;99.90;;;;;;4991685;28;20076;-68
2021/11/30 13:10:30;;;;;;;7.88;2.85;;;9.80;99.90;;;;;;4986091;28;20022;-67
2021/11/30 13:13:06;;;;;;;2.58;2.33;;;9.80;99.90;;;;;;4991351;28;20452;-68
2021/11/30 13:15:32;;;;;;;4.00;3.25;;;9.90;99.90;;;;;;4995153;28;20030;-68
2021/11/30 13:18:03;;;;;;;3.15;2.83;;;9.80;99.90;;;;;;4993041;28;20026;-68
2021/11/30 13:20:30;;;;;;;7.45;3.22;;;9.90;99.90;;;;;;4992794;28;20033;-69
2021/11/30 13:22:57;;;;;;;3.85;3.25;;;10.10;99.90;;;;;;4992763;28;20093;-68